sensor_id;sensor_type;location;lat;lon;timestamp;P1;durP1;ratioP1;P2;durP2;ratioP2
57744;SDS011;58941;50.168;4.410;2023-05-10T00:02:02;0.88;;;0.77;;
57744;SDS011;58941;50.168;4.410;2023-05-10T00:04:27;1.00;;;0.90;;
57744;SDS011;58941;50.168;4.410;2023-05-10T00:06:53;0.93;;;0.80;;
57744;SDS011;58941;50.168;4.410;2023-05-10T00:09:19;1.55;;;0.90;;
57744;SDS011;58941;50.168;4.410;2023-05-10T00:11:44;0.93;;;0.93;;
57744;SDS011;58941;50.168;4.410;2023-05-10T00:14:10;0.68;;;0.65;;
57744;SDS011;58941;50.168;4.410;2023-05-10T00:16:35;0.88;;;0.70;;
57744;SDS011;58941;50.168;4.410;2023-05-10T00:19:01;0.80;;;0.80;;
57744;SDS011;58941;50.168;4.410;2023-05-10T00:21:26;1.02;;;0.90;;
57744;SDS011;58941;50.168;4.410;2023-05-10T00:23:53;0.93;;;0.80;;
57744;SDS011;58941;50.168;4.410;2023-05-10T00:26:18;0.88;;;0.80;;
57744;SDS011;58941;50.168;4.410;2023-05-10T00:28:45;0.80;;;0.80;;
57744;SDS011;58941;50.168;4.410;2023-05-10T00:31:10;0.90;;;0.90;;
57744;SDS011;58941;50.168;4.410;2023-05-10T00:33:36;0.75;;;0.70;;
57744;SDS011;58941;50.168;4.410;2023-05-10T00:36:01;0.70;;;0.70;;
57744;SDS011;58941;50.168;4.410;2023-05-10T00:38:26;0.80;;;0.80;;
57744;SDS011;58941;50.168;4.410;2023-05-10T00:40:52;0.90;;;0.90;;
57744;SDS011;58941;50.168;4.410;2023-05-10T00:43:17;0.80;;;0.80;;
57744;SDS011;58941;50.168;4.410;2023-05-10T00:45:43;0.82;;;0.82;;
57744;SDS011;58941;50.168;4.410;2023-05-10T00:48:08;1.00;;;0.82;;
57744;SDS011;58941;50.168;4.410;2023-05-10T00:50:34;2.22;;;0.90;;
57744;SDS011;58941;50.168;4.410;2023-05-10T00:53:00;1.15;;;1.00;;
57744;SDS011;58941;50.168;4.410;2023-05-10T00:55:25;1.00;;;0.90;;
57744;SDS011;58941;50.168;4.410;2023-05-10T00:57:52;1.00;;;0.88;;
57744;SDS011;58941;50.168;4.410;2023-05-10T01:00:17;1.13;;;0.88;;
57744;SDS011;58941;50.168;4.410;2023-05-10T01:02:47;1.23;;;0.90;;
57744;SDS011;58941;50.168;4.410;2023-05-10T01:05:12;1.45;;;0.88;;
57744;SDS011;58941;50.168;4.410;2023-05-10T01:07:39;0.85;;;0.85;;
57744;SDS011;58941;50.168;4.410;2023-05-10T01:10:05;1.58;;;0.88;;
57744;SDS011;58941;50.168;4.410;2023-05-10T01:12:31;0.95;;;0.90;;
57744;SDS011;58941;50.168;4.410;2023-05-10T01:14:57;1.08;;;0.93;;
57744;SDS011;58941;50.168;4.410;2023-05-10T01:17:23;1.27;;;1.17;;
57744;SDS011;58941;50.168;4.410;2023-05-10T01:19:49;1.63;;;0.93;;
57744;SDS011;58941;50.168;4.410;2023-05-10T01:29:47;1.30;;;1.00;;
57744;SDS011;58941;50.168;4.410;2023-05-10T01:32:16;0.93;;;0.88;;
57744;SDS011;58941;50.168;4.410;2023-05-10T01:37:11;2.10;;;1.10;;
57744;SDS011;58941;50.168;4.410;2023-05-10T01:39:41;1.80;;;0.98;;
57744;SDS011;58941;50.168;4.410;2023-05-10T01:47:03;1.10;;;1.00;;
57744;SDS011;58941;50.168;4.410;2023-05-10T01:49:31;1.17;;;1.02;;
57744;SDS011;58941;50.168;4.410;2023-05-10T01:52:00;1.40;;;1.20;;
57744;SDS011;58941;50.168;4.410;2023-05-10T01:54:27;1.50;;;1.30;;
57744;SDS011;58941;50.168;4.410;2023-05-10T01:56:59;1.50;;;1.13;;
57744;SDS011;58941;50.168;4.410;2023-05-10T01:59:27;1.75;;;1.02;;
57744;SDS011;58941;50.168;4.410;2023-05-10T02:01:55;2.08;;;1.00;;
57744;SDS011;58941;50.168;4.410;2023-05-10T02:04:23;0.95;;;0.85;;
57744;SDS011;58941;50.168;4.410;2023-05-10T02:06:49;1.20;;;1.10;;
57744;SDS011;58941;50.168;4.410;2023-05-10T02:09:16;2.30;;;1.05;;
57744;SDS011;58941;50.168;4.410;2023-05-10T02:11:43;1.20;;;1.05;;
57744;SDS011;58941;50.168;4.410;2023-05-10T02:14:09;2.25;;;1.02;;
57744;SDS011;58941;50.168;4.410;2023-05-10T02:16:36;2.58;;;1.10;;
57744;SDS011;58941;50.168;4.410;2023-05-10T02:19:03;1.55;;;1.10;;
57744;SDS011;58941;50.168;4.410;2023-05-10T02:21:29;1.77;;;0.90;;
57744;SDS011;58941;50.168;4.410;2023-05-10T02:23:56;1.00;;;0.95;;
57744;SDS011;58941;50.168;4.410;2023-05-10T02:26:22;1.20;;;1.10;;
57744;SDS011;58941;50.168;4.410;2023-05-10T02:28:49;1.00;;;0.90;;
57744;SDS011;58941;50.168;4.410;2023-05-10T02:31:15;1.17;;;1.00;;
57744;SDS011;58941;50.168;4.410;2023-05-10T02:33:40;1.17;;;1.08;;
57744;SDS011;58941;50.168;4.410;2023-05-10T02:36:07;1.17;;;0.90;;
57744;SDS011;58941;50.168;4.410;2023-05-10T02:38:34;1.30;;;0.90;;
57744;SDS011;58941;50.168;4.410;2023-05-10T02:41:00;1.30;;;1.10;;
57744;SDS011;58941;50.168;4.410;2023-05-10T02:43:26;1.08;;;0.90;;
57744;SDS011;58941;50.168;4.410;2023-05-10T02:45:54;0.85;;;0.85;;
57744;SDS011;58941;50.168;4.410;2023-05-10T02:48:19;1.15;;;1.05;;
57744;SDS011;58941;50.168;4.410;2023-05-10T02:50:45;0.95;;;0.95;;
57744;SDS011;58941;50.168;4.410;2023-05-10T02:53:14;0.90;;;0.80;;
57744;SDS011;58941;50.168;4.410;2023-05-10T02:55:41;1.02;;;0.93;;
57744;SDS011;58941;50.168;4.410;2023-05-10T02:58:11;1.02;;;0.90;;
57744;SDS011;58941;50.168;4.410;2023-05-10T03:00:37;1.50;;;1.10;;
57744;SDS011;58941;50.168;4.410;2023-05-10T03:03:02;1.08;;;0.98;;
57744;SDS011;58941;50.168;4.410;2023-05-10T03:05:28;1.48;;;1.00;;
57744;SDS011;58941;50.168;4.410;2023-05-10T03:07:53;1.58;;;1.10;;
57744;SDS011;58941;50.168;4.410;2023-05-10T03:10:19;1.52;;;1.30;;
57744;SDS011;58941;50.168;4.410;2023-05-10T03:18:09;1.30;;;0.98;;
57744;SDS011;58941;50.168;4.410;2023-05-10T03:20:41;1.80;;;1.30;;
57744;SDS011;58941;50.168;4.410;2023-05-10T03:23:12;0.80;;;0.80;;
57744;SDS011;58941;50.168;4.410;2023-05-10T03:25:39;1.02;;;0.90;;
57744;SDS011;58941;50.168;4.410;2023-05-10T03:28:06;1.15;;;1.05;;
57744;SDS011;58941;50.168;4.410;2023-05-10T03:30:31;1.45;;;1.15;;
57744;SDS011;58941;50.168;4.410;2023-05-10T03:32:57;1.50;;;1.05;;
57744;SDS011;58941;50.168;4.410;2023-05-10T03:35:23;1.08;;;0.98;;
57744;SDS011;58941;50.168;4.410;2023-05-10T03:37:48;1.20;;;1.00;;
57744;SDS011;58941;50.168;4.410;2023-05-10T03:40:14;1.55;;;0.90;;
57744;SDS011;58941;50.168;4.410;2023-05-10T03:42:40;1.20;;;0.90;;
57744;SDS011;58941;50.168;4.410;2023-05-10T03:45:06;1.40;;;1.08;;
57744;SDS011;58941;50.168;4.410;2023-05-10T03:47:32;1.10;;;1.00;;
57744;SDS011;58941;50.168;4.410;2023-05-10T03:49:57;1.20;;;0.88;;
57744;SDS011;58941;50.168;4.410;2023-05-10T03:52:23;1.08;;;0.90;;
57744;SDS011;58941;50.168;4.410;2023-05-10T03:54:48;1.02;;;0.90;;
57744;SDS011;58941;50.168;4.410;2023-05-10T03:57:14;1.13;;;0.93;;
57744;SDS011;58941;50.168;4.410;2023-05-10T03:59:39;1.35;;;0.88;;
57744;SDS011;58941;50.168;4.410;2023-05-10T04:02:05;1.05;;;0.95;;
57744;SDS011;58941;50.168;4.410;2023-05-10T04:04:30;0.93;;;0.80;;
57744;SDS011;58941;50.168;4.410;2023-05-10T04:06:56;1.90;;;0.90;;
57744;SDS011;58941;50.168;4.410;2023-05-10T04:09:21;1.17;;;0.90;;
57744;SDS011;58941;50.168;4.410;2023-05-10T04:11:47;1.17;;;1.08;;
57744;SDS011;58941;50.168;4.410;2023-05-10T04:14:12;0.85;;;0.80;;
57744;SDS011;58941;50.168;4.410;2023-05-10T04:16:37;0.95;;;0.82;;
57744;SDS011;58941;50.168;4.410;2023-05-10T04:19:03;1.73;;;1.00;;
57744;SDS011;58941;50.168;4.410;2023-05-10T04:21:29;1.17;;;0.80;;
57744;SDS011;58941;50.168;4.410;2023-05-10T04:23:54;0.98;;;0.85;;
57744;SDS011;58941;50.168;4.410;2023-05-10T04:26:20;1.33;;;1.00;;
57744;SDS011;58941;50.168;4.410;2023-05-10T04:28:45;1.17;;;0.80;;
57744;SDS011;58941;50.168;4.410;2023-05-10T04:31:11;1.05;;;0.93;;
57744;SDS011;58941;50.168;4.410;2023-05-10T04:33:36;1.58;;;0.90;;
57744;SDS011;58941;50.168;4.410;2023-05-10T04:36:02;0.70;;;0.70;;
57744;SDS011;58941;50.168;4.410;2023-05-10T04:38:28;1.00;;;0.90;;
57744;SDS011;58941;50.168;4.410;2023-05-10T04:40:54;1.17;;;0.90;;
57744;SDS011;58941;50.168;4.410;2023-05-10T04:43:19;0.80;;;0.80;;
57744;SDS011;58941;50.168;4.410;2023-05-10T04:45:45;1.27;;;0.88;;
57744;SDS011;58941;50.168;4.410;2023-05-10T04:48:11;0.82;;;0.82;;
57744;SDS011;58941;50.168;4.410;2023-05-10T04:50:37;1.05;;;0.95;;
57744;SDS011;58941;50.168;4.410;2023-05-10T04:53:02;1.27;;;1.00;;
57744;SDS011;58941;50.168;4.410;2023-05-10T04:55:27;1.10;;;0.75;;
57744;SDS011;58941;50.168;4.410;2023-05-10T04:57:53;0.88;;;0.80;;
57744;SDS011;58941;50.168;4.410;2023-05-10T05:00:22;1.20;;;0.80;;
57744;SDS011;58941;50.168;4.410;2023-05-10T05:02:47;0.80;;;0.80;;
57744;SDS011;58941;50.168;4.410;2023-05-10T05:05:13;0.95;;;0.85;;
57744;SDS011;58941;50.168;4.410;2023-05-10T05:07:38;0.90;;;0.80;;
57744;SDS011;58941;50.168;4.410;2023-05-10T05:10:07;0.70;;;0.70;;
57744;SDS011;58941;50.168;4.410;2023-05-10T05:12:34;0.85;;;0.60;;
57744;SDS011;58941;50.168;4.410;2023-05-10T05:14:59;1.08;;;0.80;;
57744;SDS011;58941;50.168;4.410;2023-05-10T05:17:25;0.82;;;0.65;;
57744;SDS011;58941;50.168;4.410;2023-05-10T05:19:50;0.52;;;0.52;;
57744;SDS011;58941;50.168;4.410;2023-05-10T05:22:16;1.10;;;0.60;;
57744;SDS011;58941;50.168;4.410;2023-05-10T05:24:41;0.93;;;0.80;;
57744;SDS011;58941;50.168;4.410;2023-05-10T05:27:06;0.73;;;0.60;;
57744;SDS011;58941;50.168;4.410;2023-05-10T05:29:32;0.65;;;0.60;;
57744;SDS011;58941;50.168;4.410;2023-05-10T05:31:57;0.75;;;0.55;;
57744;SDS011;58941;50.168;4.410;2023-05-10T05:34:23;1.48;;;0.57;;
57744;SDS011;58941;50.168;4.410;2023-05-10T05:36:49;0.98;;;0.50;;
57744;SDS011;58941;50.168;4.410;2023-05-10T05:39:15;0.80;;;0.52;;
57744;SDS011;58941;50.168;4.410;2023-05-10T05:41:41;0.60;;;0.60;;
57744;SDS011;58941;50.168;4.410;2023-05-10T05:44:06;0.60;;;0.50;;
57744;SDS011;58941;50.168;4.410;2023-05-10T05:46:32;1.02;;;0.70;;
57744;SDS011;58941;50.168;4.410;2023-05-10T05:48:57;0.70;;;0.70;;
57744;SDS011;58941;50.168;4.410;2023-05-10T05:51:22;0.93;;;0.70;;
57744;SDS011;58941;50.168;4.410;2023-05-10T05:53:48;1.25;;;0.60;;
57744;SDS011;58941;50.168;4.410;2023-05-10T05:56:13;0.65;;;0.65;;
57744;SDS011;58941;50.168;4.410;2023-05-10T05:58:39;1.17;;;0.57;;
57744;SDS011;58941;50.168;4.410;2023-05-10T06:01:04;0.40;;;0.40;;
57744;SDS011;58941;50.168;4.410;2023-05-10T06:03:30;0.77;;;0.47;;
57744;SDS011;58941;50.168;4.410;2023-05-10T06:05:55;1.40;;;0.60;;
57744;SDS011;58941;50.168;4.410;2023-05-10T06:08:21;1.10;;;0.60;;
57744;SDS011;58941;50.168;4.410;2023-05-10T06:10:47;0.50;;;0.50;;
57744;SDS011;58941;50.168;4.410;2023-05-10T06:13:13;0.50;;;0.50;;
57744;SDS011;58941;50.168;4.410;2023-05-10T06:15:38;0.40;;;0.30;;
57744;SDS011;58941;50.168;4.410;2023-05-10T06:18:04;0.65;;;0.47;;
57744;SDS011;58941;50.168;4.410;2023-05-10T06:20:29;0.43;;;0.43;;
57744;SDS011;58941;50.168;4.410;2023-05-10T06:22:57;0.45;;;0.40;;
57744;SDS011;58941;50.168;4.410;2023-05-10T06:25:22;0.50;;;0.50;;
57744;SDS011;58941;50.168;4.410;2023-05-10T06:27:48;0.52;;;0.50;;
57744;SDS011;58941;50.168;4.410;2023-05-10T06:30:14;0.40;;;0.40;;
57744;SDS011;58941;50.168;4.410;2023-05-10T06:32:39;0.52;;;0.40;;
57744;SDS011;58941;50.168;4.410;2023-05-10T06:35:05;0.95;;;0.55;;
57744;SDS011;58941;50.168;4.410;2023-05-10T06:37:31;0.30;;;0.30;;
57744;SDS011;58941;50.168;4.410;2023-05-10T06:39:57;1.38;;;1.05;;
57744;SDS011;58941;50.168;4.410;2023-05-10T06:42:22;1.50;;;1.10;;
57744;SDS011;58941;50.168;4.410;2023-05-10T06:44:51;1.40;;;1.08;;
57744;SDS011;58941;50.168;4.410;2023-05-10T06:47:16;0.90;;;0.80;;
57744;SDS011;58941;50.168;4.410;2023-05-10T06:49:42;0.95;;;0.80;;
57744;SDS011;58941;50.168;4.410;2023-05-10T06:52:07;0.43;;;0.43;;
57744;SDS011;58941;50.168;4.410;2023-05-10T06:54:33;1.98;;;0.65;;
57744;SDS011;58941;50.168;4.410;2023-05-10T06:56:58;0.73;;;0.60;;
57744;SDS011;58941;50.168;4.410;2023-05-10T06:59:24;1.40;;;0.80;;
57744;SDS011;58941;50.168;4.410;2023-05-10T07:01:50;1.65;;;1.00;;
57744;SDS011;58941;50.168;4.410;2023-05-10T07:04:16;1.40;;;0.80;;
57744;SDS011;58941;50.168;4.410;2023-05-10T07:06:42;1.45;;;0.80;;
57744;SDS011;58941;50.168;4.410;2023-05-10T07:09:08;1.25;;;0.70;;
57744;SDS011;58941;50.168;4.410;2023-05-10T07:11:34;0.70;;;0.60;;
57744;SDS011;58941;50.168;4.410;2023-05-10T07:13:59;0.60;;;0.60;;
57744;SDS011;58941;50.168;4.410;2023-05-10T07:16:25;0.65;;;0.60;;
57744;SDS011;58941;50.168;4.410;2023-05-10T07:18:51;0.50;;;0.50;;
57744;SDS011;58941;50.168;4.410;2023-05-10T07:21:18;0.75;;;0.50;;
57744;SDS011;58941;50.168;4.410;2023-05-10T07:23:43;0.55;;;0.50;;
57744;SDS011;58941;50.168;4.410;2023-05-10T07:26:09;0.85;;;0.70;;
57744;SDS011;58941;50.168;4.410;2023-05-10T07:28:35;0.60;;;0.55;;
57744;SDS011;58941;50.168;4.410;2023-05-10T07:31:03;0.47;;;0.40;;
57744;SDS011;58941;50.168;4.410;2023-05-10T07:33:28;0.95;;;0.50;;
57744;SDS011;58941;50.168;4.410;2023-05-10T07:35:54;0.70;;;0.60;;
57744;SDS011;58941;50.168;4.410;2023-05-10T07:38:20;0.55;;;0.50;;
57744;SDS011;58941;50.168;4.410;2023-05-10T07:40:45;0.88;;;0.60;;
57744;SDS011;58941;50.168;4.410;2023-05-10T07:43:10;0.60;;;0.45;;
57744;SDS011;58941;50.168;4.410;2023-05-10T07:45:37;0.70;;;0.60;;
57744;SDS011;58941;50.168;4.410;2023-05-10T07:48:02;0.50;;;0.50;;
57744;SDS011;58941;50.168;4.410;2023-05-10T07:50:28;0.90;;;0.80;;
57744;SDS011;58941;50.168;4.410;2023-05-10T07:52:53;1.63;;;0.77;;
57744;SDS011;58941;50.168;4.410;2023-05-10T07:55:19;0.85;;;0.60;;
57744;SDS011;58941;50.168;4.410;2023-05-10T07:57:46;0.73;;;0.70;;
57744;SDS011;58941;50.168;4.410;2023-05-10T08:00:18;0.90;;;0.55;;
57744;SDS011;58941;50.168;4.410;2023-05-10T08:02:44;0.82;;;0.70;;
57744;SDS011;58941;50.168;4.410;2023-05-10T08:05:09;1.55;;;0.90;;
57744;SDS011;58941;50.168;4.410;2023-05-10T08:07:35;2.22;;;0.90;;
57744;SDS011;58941;50.168;4.410;2023-05-10T08:10:01;0.88;;;0.80;;
57744;SDS011;58941;50.168;4.410;2023-05-10T08:12:26;1.48;;;0.95;;
57744;SDS011;58941;50.168;4.410;2023-05-10T08:14:52;0.95;;;0.80;;
57744;SDS011;58941;50.168;4.410;2023-05-10T08:17:17;1.17;;;0.90;;
57744;SDS011;58941;50.168;4.410;2023-05-10T08:19:43;0.95;;;0.70;;
57744;SDS011;58941;50.168;4.410;2023-05-10T08:22:08;2.80;;;1.30;;
57744;SDS011;58941;50.168;4.410;2023-05-10T08:24:34;4.85;;;1.38;;
57744;SDS011;58941;50.168;4.410;2023-05-10T08:27:06;0.82;;;0.60;;
57744;SDS011;58941;50.168;4.410;2023-05-10T08:29:31;1.17;;;0.70;;
57744;SDS011;58941;50.168;4.410;2023-05-10T08:31:57;7.00;;;1.00;;
57744;SDS011;58941;50.168;4.410;2023-05-10T08:34:22;3.55;;;0.98;;
57744;SDS011;58941;50.168;4.410;2023-05-10T08:36:48;1.33;;;0.75;;
57744;SDS011;58941;50.168;4.410;2023-05-10T08:39:14;1.58;;;0.70;;
57744;SDS011;58941;50.168;4.410;2023-05-10T08:41:39;1.77;;;0.80;;
57744;SDS011;58941;50.168;4.410;2023-05-10T08:44:09;0.95;;;0.50;;
57744;SDS011;58941;50.168;4.410;2023-05-10T08:46:35;1.13;;;0.60;;
57744;SDS011;58941;50.168;4.410;2023-05-10T08:49:03;1.20;;;0.60;;
57744;SDS011;58941;50.168;4.410;2023-05-10T08:51:30;1.10;;;0.70;;
57744;SDS011;58941;50.168;4.410;2023-05-10T08:53:59;1.38;;;1.10;;
57744;SDS011;58941;50.168;4.410;2023-05-10T08:56:25;1.88;;;1.45;;
57744;SDS011;58941;50.168;4.410;2023-05-10T08:58:51;1.58;;;1.20;;
57744;SDS011;58941;50.168;4.410;2023-05-10T09:01:16;1.05;;;0.95;;
57744;SDS011;58941;50.168;4.410;2023-05-10T09:03:42;0.73;;;0.73;;
57744;SDS011;58941;50.168;4.410;2023-05-10T09:06:08;1.30;;;0.80;;
57744;SDS011;58941;50.168;4.410;2023-05-10T09:08:34;0.70;;;0.70;;
57744;SDS011;58941;50.168;4.410;2023-05-10T09:11:00;1.17;;;0.60;;
57744;SDS011;58941;50.168;4.410;2023-05-10T09:13:26;1.73;;;0.88;;
57744;SDS011;58941;50.168;4.410;2023-05-10T09:15:52;0.80;;;0.60;;
57744;SDS011;58941;50.168;4.410;2023-05-10T09:18:18;1.85;;;0.73;;
57744;SDS011;58941;50.168;4.410;2023-05-10T09:20:43;1.27;;;0.68;;
57744;SDS011;58941;50.168;4.410;2023-05-10T09:23:09;1.25;;;0.70;;
57744;SDS011;58941;50.168;4.410;2023-05-10T09:25:34;1.00;;;0.80;;
57744;SDS011;58941;50.168;4.410;2023-05-10T09:28:00;2.28;;;0.60;;
57744;SDS011;58941;50.168;4.410;2023-05-10T09:30:26;0.88;;;0.70;;
57744;SDS011;58941;50.168;4.410;2023-05-10T09:32:52;2.75;;;0.90;;
57744;SDS011;58941;50.168;4.410;2023-05-10T09:35:18;1.98;;;0.70;;
57744;SDS011;58941;50.168;4.410;2023-05-10T09:37:48;2.75;;;0.70;;
57744;SDS011;58941;50.168;4.410;2023-05-10T09:40:15;1.17;;;0.73;;
57744;SDS011;58941;50.168;4.410;2023-05-10T09:42:42;2.13;;;0.80;;
57744;SDS011;58941;50.168;4.410;2023-05-10T09:45:16;0.70;;;0.70;;
57744;SDS011;58941;50.168;4.410;2023-05-10T09:47:41;0.95;;;0.63;;
57744;SDS011;58941;50.168;4.410;2023-05-10T09:50:07;1.20;;;0.82;;
57744;SDS011;58941;50.168;4.410;2023-05-10T09:52:48;1.20;;;0.68;;
57744;SDS011;58941;50.168;4.410;2023-05-10T09:55:14;1.58;;;0.80;;
57744;SDS011;58941;50.168;4.410;2023-05-10T09:57:40;2.85;;;0.80;;
57744;SDS011;58941;50.168;4.410;2023-05-10T10:00:06;0.65;;;0.60;;
57744;SDS011;58941;50.168;4.410;2023-05-10T10:02:32;1.30;;;0.90;;
57744;SDS011;58941;50.168;4.410;2023-05-10T10:05:00;1.48;;;0.82;;
57744;SDS011;58941;50.168;4.410;2023-05-10T10:07:27;0.85;;;0.80;;
57744;SDS011;58941;50.168;4.410;2023-05-10T10:09:53;1.33;;;0.80;;
57744;SDS011;58941;50.168;4.410;2023-05-10T10:12:19;0.82;;;0.82;;
57744;SDS011;58941;50.168;4.410;2023-05-10T10:14:46;1.02;;;0.93;;
57744;SDS011;58941;50.168;4.410;2023-05-10T10:17:12;1.20;;;0.75;;
57744;SDS011;58941;50.168;4.410;2023-05-10T10:19:38;0.88;;;0.80;;
57744;SDS011;58941;50.168;4.410;2023-05-10T10:22:04;1.52;;;0.82;;
57744;SDS011;58941;50.168;4.410;2023-05-10T10:24:30;2.00;;;1.10;;
57744;SDS011;58941;50.168;4.410;2023-05-10T10:26:56;1.17;;;1.00;;
57744;SDS011;58941;50.168;4.410;2023-05-10T10:34:28;1.38;;;1.17;;
57744;SDS011;58941;50.168;4.410;2023-05-10T10:36:55;1.38;;;1.20;;
57744;SDS011;58941;50.168;4.410;2023-05-10T10:39:21;1.13;;;1.00;;
57744;SDS011;58941;50.168;4.410;2023-05-10T10:41:51;1.17;;;1.02;;
57744;SDS011;58941;50.168;4.410;2023-05-10T10:49:14;1.00;;;0.90;;
57744;SDS011;58941;50.168;4.410;2023-05-10T10:52:12;1.10;;;0.90;;
57744;SDS011;58941;50.168;4.410;2023-05-10T10:54:29;1.35;;;1.10;;
57744;SDS011;58941;50.168;4.410;2023-05-10T10:57:10;1.08;;;1.00;;
57744;SDS011;58941;50.168;4.410;2023-05-10T10:59:35;1.50;;;1.00;;
57744;SDS011;58941;50.168;4.410;2023-05-10T11:02:01;1.65;;;1.10;;
57744;SDS011;58941;50.168;4.410;2023-05-10T11:04:27;1.08;;;0.95;;
57744;SDS011;58941;50.168;4.410;2023-05-10T11:06:53;1.60;;;1.10;;
57744;SDS011;58941;50.168;4.410;2023-05-10T11:09:39;0.90;;;0.90;;
57744;SDS011;58941;50.168;4.410;2023-05-10T11:12:07;1.20;;;1.10;;
57744;SDS011;58941;50.168;4.410;2023-05-10T11:14:33;1.10;;;1.00;;
57744;SDS011;58941;50.168;4.410;2023-05-10T11:16:59;1.20;;;1.10;;
57744;SDS011;58941;50.168;4.410;2023-05-10T11:19:27;1.33;;;1.00;;
57744;SDS011;58941;50.168;4.410;2023-05-10T11:24:22;1.30;;;1.20;;
57744;SDS011;58941;50.168;4.410;2023-05-10T11:26:50;1.90;;;1.10;;
57744;SDS011;58941;50.168;4.410;2023-05-10T11:29:19;1.70;;;1.17;;
57744;SDS011;58941;50.168;4.410;2023-05-10T11:31:45;1.13;;;1.02;;
57744;SDS011;58941;50.168;4.410;2023-05-10T11:34:13;1.63;;;1.42;;
57744;SDS011;58941;50.168;4.410;2023-05-10T11:36:50;1.42;;;1.30;;
57744;SDS011;58941;50.168;4.410;2023-05-10T11:39:16;1.77;;;1.10;;
57744;SDS011;58941;50.168;4.410;2023-05-10T11:41:42;1.90;;;1.10;;
57744;SDS011;58941;50.168;4.410;2023-05-10T11:44:08;1.55;;;1.20;;
57744;SDS011;58941;50.168;4.410;2023-05-10T11:46:34;1.30;;;1.20;;
57744;SDS011;58941;50.168;4.410;2023-05-10T11:49:01;1.30;;;1.20;;
57744;SDS011;58941;50.168;4.410;2023-05-10T11:51:32;1.20;;;1.10;;
57744;SDS011;58941;50.168;4.410;2023-05-10T11:53:58;2.28;;;1.20;;
57744;SDS011;58941;50.168;4.410;2023-05-10T11:56:23;1.10;;;1.00;;
57744;SDS011;58941;50.168;4.410;2023-05-10T11:58:52;1.35;;;1.00;;
57744;SDS011;58941;50.168;4.410;2023-05-10T12:01:18;1.20;;;1.10;;
57744;SDS011;58941;50.168;4.410;2023-05-10T12:03:44;2.10;;;1.20;;
57744;SDS011;58941;50.168;4.410;2023-05-10T12:06:09;1.45;;;1.08;;
57744;SDS011;58941;50.168;4.410;2023-05-10T12:08:35;1.98;;;1.25;;
57744;SDS011;58941;50.168;4.410;2023-05-10T12:11:07;1.20;;;1.10;;
57744;SDS011;58941;50.168;4.410;2023-05-10T12:13:37;2.40;;;1.05;;
57744;SDS011;58941;50.168;4.410;2023-05-10T12:16:17;1.10;;;1.00;;
57744;SDS011;58941;50.168;4.410;2023-05-10T12:18:44;1.10;;;1.00;;
57744;SDS011;58941;50.168;4.410;2023-05-10T12:21:10;1.23;;;1.10;;
57744;SDS011;58941;50.168;4.410;2023-05-10T12:23:37;1.30;;;1.20;;
57744;SDS011;58941;50.168;4.410;2023-05-10T12:26:03;1.38;;;1.00;;
57744;SDS011;58941;50.168;4.410;2023-05-10T12:28:30;1.20;;;1.10;;
57744;SDS011;58941;50.168;4.410;2023-05-10T12:30:55;1.52;;;1.13;;
57744;SDS011;58941;50.168;4.410;2023-05-10T12:33:22;0.95;;;0.82;;
57744;SDS011;58941;50.168;4.410;2023-05-10T12:35:49;1.25;;;1.10;;
57744;SDS011;58941;50.168;4.410;2023-05-10T12:40:50;0.98;;;0.90;;
57744;SDS011;58941;50.168;4.410;2023-05-10T12:43:15;1.20;;;1.10;;
57744;SDS011;58941;50.168;4.410;2023-05-10T12:45:41;1.33;;;1.00;;
57744;SDS011;58941;50.168;4.410;2023-05-10T12:48:06;1.20;;;1.02;;
57744;SDS011;58941;50.168;4.410;2023-05-10T12:50:32;1.02;;;0.93;;
57744;SDS011;58941;50.168;4.410;2023-05-10T12:52:57;1.15;;;1.02;;
57744;SDS011;58941;50.168;4.410;2023-05-10T12:55:23;1.25;;;1.15;;
57744;SDS011;58941;50.168;4.410;2023-05-10T12:57:48;1.83;;;1.40;;
57744;SDS011;58941;50.168;4.410;2023-05-10T13:00:14;1.40;;;1.30;;
57744;SDS011;58941;50.168;4.410;2023-05-10T13:02:40;1.70;;;1.38;;
57744;SDS011;58941;50.168;4.410;2023-05-10T13:05:05;1.75;;;1.30;;
57744;SDS011;58941;50.168;4.410;2023-05-10T13:07:31;2.25;;;1.48;;
57744;SDS011;58941;50.168;4.410;2023-05-10T13:09:56;1.50;;;1.13;;
57744;SDS011;58941;50.168;4.410;2023-05-10T13:12:22;1.65;;;1.05;;
57744;SDS011;58941;50.168;4.410;2023-05-10T13:14:47;1.85;;;1.30;;
57744;SDS011;58941;50.168;4.410;2023-05-10T13:17:13;1.75;;;1.20;;
57744;SDS011;58941;50.168;4.410;2023-05-10T13:19:38;2.80;;;1.25;;
57744;SDS011;58941;50.168;4.410;2023-05-10T13:22:04;2.30;;;1.40;;
57744;SDS011;58941;50.168;4.410;2023-05-10T13:24:30;1.40;;;1.27;;
57744;SDS011;58941;50.168;4.410;2023-05-10T13:26:56;1.23;;;1.13;;
57744;SDS011;58941;50.168;4.410;2023-05-10T13:29:21;2.13;;;1.40;;
57744;SDS011;58941;50.168;4.410;2023-05-10T13:31:47;2.00;;;1.67;;
57744;SDS011;58941;50.168;4.410;2023-05-10T13:34:13;1.50;;;1.33;;
57744;SDS011;58941;50.168;4.410;2023-05-10T13:36:38;1.30;;;1.10;;
57744;SDS011;58941;50.168;4.410;2023-05-10T13:39:04;1.30;;;1.20;;
57744;SDS011;58941;50.168;4.410;2023-05-10T13:41:30;1.70;;;1.10;;
57744;SDS011;58941;50.168;4.410;2023-05-10T13:43:56;2.08;;;1.30;;
57744;SDS011;58941;50.168;4.410;2023-05-10T13:46:21;1.75;;;1.45;;
57744;SDS011;58941;50.168;4.410;2023-05-10T13:48:47;2.08;;;1.17;;
57744;SDS011;58941;50.168;4.410;2023-05-10T13:51:12;1.67;;;1.25;;
57744;SDS011;58941;50.168;4.410;2023-05-10T13:53:38;1.45;;;1.20;;
57744;SDS011;58941;50.168;4.410;2023-05-10T13:56:04;1.67;;;1.30;;
57744;SDS011;58941;50.168;4.410;2023-05-10T13:58:29;1.58;;;1.20;;
57744;SDS011;58941;50.168;4.410;2023-05-10T14:00:55;1.58;;;1.30;;
57744;SDS011;58941;50.168;4.410;2023-05-10T14:03:21;1.30;;;1.10;;
57744;SDS011;58941;50.168;4.410;2023-05-10T14:05:46;1.23;;;1.13;;
57744;SDS011;58941;50.168;4.410;2023-05-10T14:08:12;1.55;;;1.25;;
57744;SDS011;58941;50.168;4.410;2023-05-10T14:10:38;1.67;;;1.30;;
57744;SDS011;58941;50.168;4.410;2023-05-10T14:13:04;1.60;;;1.10;;
57744;SDS011;58941;50.168;4.410;2023-05-10T14:15:30;1.77;;;1.23;;
57744;SDS011;58941;50.168;4.410;2023-05-10T14:17:56;1.35;;;1.05;;
57744;SDS011;58941;50.168;4.410;2023-05-10T14:20:21;1.23;;;1.10;;
57744;SDS011;58941;50.168;4.410;2023-05-10T14:22:47;1.60;;;1.25;;
57744;SDS011;58941;50.168;4.410;2023-05-10T14:25:12;1.52;;;1.05;;
57744;SDS011;58941;50.168;4.410;2023-05-10T14:27:38;1.08;;;0.95;;
57744;SDS011;58941;50.168;4.410;2023-05-10T14:30:05;1.98;;;0.90;;
57744;SDS011;58941;50.168;4.410;2023-05-10T14:32:31;1.00;;;0.73;;
57744;SDS011;58941;50.168;4.410;2023-05-10T14:34:57;0.98;;;0.80;;
57744;SDS011;58941;50.168;4.410;2023-05-10T14:37:22;1.45;;;1.13;;
57744;SDS011;58941;50.168;4.410;2023-05-10T14:39:48;1.60;;;1.00;;
57744;SDS011;58941;50.168;4.410;2023-05-10T14:42:13;1.13;;;0.80;;
57744;SDS011;58941;50.168;4.410;2023-05-10T14:44:39;1.15;;;0.90;;
57744;SDS011;58941;50.168;4.410;2023-05-10T14:47:04;1.27;;;0.80;;
57744;SDS011;58941;50.168;4.410;2023-05-10T14:49:30;0.77;;;0.77;;
57744;SDS011;58941;50.168;4.410;2023-05-10T14:51:55;1.00;;;0.90;;
57744;SDS011;58941;50.168;4.410;2023-05-10T14:54:21;1.30;;;1.00;;
57744;SDS011;58941;50.168;4.410;2023-05-10T14:56:46;2.17;;;1.38;;
57744;SDS011;58941;50.168;4.410;2023-05-10T14:59:15;2.00;;;1.00;;
57744;SDS011;58941;50.168;4.410;2023-05-10T15:01:41;1.35;;;1.00;;
57744;SDS011;58941;50.168;4.410;2023-05-10T15:04:07;1.50;;;1.20;;
57744;SDS011;58941;50.168;4.410;2023-05-10T15:06:33;1.40;;;1.00;;
57744;SDS011;58941;50.168;4.410;2023-05-10T15:08:59;1.67;;;1.20;;
57744;SDS011;58941;50.168;4.410;2023-05-10T15:11:25;1.52;;;1.15;;
57744;SDS011;58941;50.168;4.410;2023-05-10T15:13:51;1.85;;;1.00;;
57744;SDS011;58941;50.168;4.410;2023-05-10T15:16:17;0.80;;;0.80;;
57744;SDS011;58941;50.168;4.410;2023-05-10T15:18:42;1.63;;;1.08;;